createdAt,value
2019-04-11T00:01:02.102Z,1.93
2019-04-11T00:03:31.801Z,1.89
2019-04-11T00:06:01.665Z,1.84
2019-04-11T00:08:32.348Z,0.82
2019-04-11T00:11:03.733Z,1.79
2019-04-11T00:13:35.954Z,1.76
2019-04-11T00:16:05.067Z,1.78
2019-04-11T00:18:34.606Z,1.75
2019-04-11T00:21:04.523Z,1.78
2019-04-11T00:23:34.369Z,1.75
2019-04-11T00:26:05.088Z,1.75
2019-04-11T00:28:35.155Z,1.71
2019-04-11T00:31:04.748Z,1.69
2019-04-11T00:33:34.289Z,1.70
2019-04-11T00:36:04.213Z,1.68
2019-04-11T00:38:34.133Z,1.64
2019-04-11T00:41:03.801Z,1.65
2019-04-11T00:43:37.644Z,1.56
2019-04-11T00:46:04.807Z,1.51
2019-04-11T00:48:35.599Z,1.45
2019-04-11T00:51:07.618Z,1.42
2019-04-11T00:53:38.314Z,1.44
2019-04-11T00:56:10.887Z,1.41
2019-04-11T00:58:41.552Z,1.43
2019-04-11T01:01:11.442Z,1.44
2019-04-11T01:03:41.117Z,1.45
2019-04-11T01:06:10.609Z,1.41
2019-04-11T01:08:40.189Z,1.41
2019-04-11T01:11:09.955Z,1.40
2019-04-11T01:13:47.275Z,1.44
2019-04-11T01:16:32.628Z,1.45
2019-04-11T01:19:02.600Z,1.47
2019-04-11T01:21:32.816Z,1.45
2019-04-11T01:24:03.729Z,1.43
2019-04-11T01:26:33.398Z,1.42
2019-04-11T01:29:03.562Z,1.39
2019-04-11T01:31:34.119Z,1.40
2019-04-11T01:34:04.439Z,1.37
2019-04-11T01:36:35.259Z,1.35
2019-04-11T01:39:16.807Z,1.29
2019-04-11T01:41:46.759Z,1.26
2019-04-11T01:44:16.530Z,1.19
2019-04-11T01:46:46.495Z,1.15
2019-04-11T01:49:21.860Z,1.14
2019-04-11T01:51:51.382Z,1.19
2019-04-11T01:54:21.794Z,1.19
2019-04-11T01:56:51.643Z,1.20
2019-04-11T01:59:21.606Z,1.17
2019-04-11T02:02:09.565Z,1.14
2019-04-11T02:04:44.008Z,1.06
2019-04-11T02:07:14.281Z,1.03
2019-04-11T02:09:44.204Z,1.05
2019-04-11T02:12:14.178Z,1.05
2019-04-11T02:14:43.971Z,1.05
2019-04-11T02:17:14.649Z,1.07
2019-04-11T02:19:44.754Z,1.03
2019-04-11T02:22:32.743Z,1.02
2019-04-11T02:25:24.809Z,1.04
2019-04-11T02:27:54.452Z,1.01
2019-04-11T02:30:25.366Z,1.03
2019-04-11T02:32:56.081Z,1.00
2019-04-11T02:35:26.807Z,0.98
2019-04-11T02:37:57.006Z,0.99
2019-04-11T02:40:29.924Z,0.91
2019-04-11T02:43:00.234Z,0.84
2019-04-11T02:45:43.326Z,0.86
2019-04-11T02:48:03.816Z,0.84
2019-04-11T02:50:34.528Z,0.85
2019-04-11T02:53:07.086Z,0.80
2019-04-11T02:55:37.838Z,0.77
2019-04-11T02:58:08.100Z,0.74
2019-04-11T03:00:37.762Z,0.72
2019-04-11T03:03:08.460Z,0.78
2019-04-11T03:05:39.458Z,0.75
2019-04-11T03:08:12.049Z,0.73
2019-04-11T03:10:41.561Z,0.75
2019-04-11T03:13:12.755Z,0.73
2019-04-11T03:15:56.822Z,0.72
2019-04-11T03:18:33.273Z,0.73
2019-04-11T03:20:49.667Z,0.69
2019-04-11T03:23:20.930Z,0.71
2019-04-11T03:25:49.186Z,0.70
2019-04-11T03:28:23.018Z,0.67
2019-04-11T03:31:21.931Z,0.61
2019-04-11T03:36:53.913Z,0.59
2019-04-11T03:38:48.262Z,0.57
2019-04-11T03:41:16.160Z,0.51
2019-04-11T03:43:37.683Z,0.49
2019-04-11T03:46:19.736Z,0.46
2019-04-11T03:48:43.729Z,0.40
2019-04-11T03:51:04.487Z,0.40
2019-04-11T03:53:36.444Z,0.40
2019-04-11T03:56:07.647Z,0.38
2019-04-11T03:58:39.568Z,0.39
2019-04-11T04:01:11.481Z,0.33
2019-04-11T04:03:42.586Z,0.35
2019-04-11T04:06:12.926Z,0.37
2019-04-11T04:08:44.487Z,0.32
2019-04-11T04:11:20.498Z,0.33
2019-04-11T04:13:59.222Z,0.45
2019-04-11T04:16:43.201Z,0.62
2019-04-11T04:19:27.066Z,0.44
2019-04-11T04:22:03.050Z,0.39
2019-04-11T04:24:37.790Z,0.35
2019-04-11T04:27:07.660Z,0.35
2019-04-11T04:29:37.871Z,0.41
2019-04-11T04:32:08.582Z,0.43
2019-04-11T04:34:40.077Z,0.45
2019-04-11T04:37:11.858Z,0.36
2019-04-11T04:39:41.551Z,0.36
2019-04-11T04:42:23.562Z,0.40
2019-04-11T04:44:45.155Z,0.42
2019-04-11T04:47:22.164Z,0.44
2019-04-11T04:49:46.010Z,0.46
2019-04-11T04:52:18.856Z,0.50
2019-04-11T04:54:49.048Z,0.46
2019-04-11T04:57:20.249Z,0.48
2019-04-11T04:59:49.977Z,0.40
2019-04-11T05:02:20.536Z,0.38
2019-04-11T05:04:52.005Z,0.34
2019-04-11T05:07:23.431Z,0.35
2019-04-11T05:09:54.506Z,0.38
2019-04-11T05:12:26.031Z,0.39
2019-04-11T05:14:56.129Z,0.45
2019-04-11T05:17:28.172Z,0.43
2019-04-11T05:19:58.539Z,0.42
2019-04-11T05:22:28.294Z,0.46
2019-04-11T05:25:01.393Z,0.50
2019-04-11T05:27:29.547Z,0.57
2019-04-11T05:29:59.286Z,0.57
2019-04-11T05:32:29.228Z,0.63
2019-04-11T05:34:58.911Z,0.63
2019-04-11T05:37:29.212Z,0.70
2019-04-11T05:39:59.040Z,0.69
2019-04-11T05:42:29.240Z,0.61
2019-04-11T05:44:59.192Z,0.67
2019-04-11T05:47:29.709Z,0.70
2019-04-11T05:50:10.052Z,0.73
2019-04-11T05:52:37.386Z,0.72
2019-04-11T05:55:11.754Z,0.79
2019-04-11T05:57:43.076Z,0.91
2019-04-11T06:00:19.376Z,0.99
2019-04-11T06:02:59.682Z,0.98
2019-04-11T06:05:49.942Z,1.03
2019-04-11T06:08:25.430Z,1.16
2019-04-11T06:11:20.704Z,1.29
2019-04-11T06:14:13.241Z,1.41
2019-04-11T06:16:50.342Z,1.44
2019-04-11T06:19:24.838Z,1.47
2019-04-11T06:21:58.408Z,1.52
2019-04-11T06:24:48.215Z,1.52
2019-04-11T06:27:43.285Z,1.57
2019-04-11T06:30:30.724Z,1.71
2019-04-11T06:33:32.183Z,1.65
2019-04-11T06:36:16.076Z,1.63
2019-04-11T06:38:51.793Z,1.65
2019-04-11T06:41:49.309Z,1.65
2019-04-11T06:44:36.241Z,1.66
2019-04-11T06:47:30.009Z,1.76
2019-04-11T06:50:39.661Z,1.85
2019-04-11T06:53:11.411Z,1.84
2019-04-11T06:56:06.221Z,1.95
2019-04-11T06:58:39.497Z,2.11
2019-04-11T07:01:14.004Z,2.13
2019-04-11T07:03:47.503Z,2.19
2019-04-11T07:06:27.285Z,2.27
2019-04-11T07:09:31.062Z,2.35
2019-04-11T07:12:05.585Z,2.47
2019-04-11T07:14:58.052Z,2.53
2019-04-11T07:17:45.898Z,2.59
2019-04-11T07:20:33.605Z,2.65
2019-04-11T07:23:22.180Z,2.81
2019-04-11T07:26:23.064Z,2.89
2019-04-11T07:29:24.010Z,2.98
2019-04-11T07:32:11.675Z,2.99
2019-04-11T07:35:06.468Z,2.99
2019-04-11T07:37:44.603Z,3.05
2019-04-11T07:40:33.314Z,3.13
2019-04-11T07:43:24.743Z,3.11
2019-04-11T07:46:27.323Z,3.04
2019-04-11T07:49:17.869Z,2.56
2019-04-11T07:51:50.893Z,3.21
2019-04-11T07:54:22.469Z,3.36
2019-04-11T07:57:06.217Z,3.46
2019-04-11T07:59:57.888Z,3.49
2019-04-11T08:02:45.666Z,3.58
2019-04-11T08:05:50.207Z,3.42
2019-04-11T08:08:56.804Z,3.41
2019-04-11T08:11:45.390Z,3.50
2019-04-11T08:14:37.149Z,3.63
2019-04-11T08:17:27.930Z,3.63
2019-04-11T08:20:08.059Z,3.62
2019-04-11T08:22:41.198Z,3.72
2019-04-11T08:25:23.130Z,3.92
2019-04-11T08:28:00.768Z,4.02
2019-04-11T08:30:34.800Z,4.63
2019-04-11T08:33:04.965Z,6.44
2019-04-11T08:35:55.170Z,7.16
2019-04-11T08:38:29.891Z,7.24
2019-04-11T08:41:33.946Z,7.31
2019-04-11T08:44:08.259Z,7.18
2019-04-11T08:46:44.759Z,6.15
2019-04-11T08:49:20.267Z,6.18
2019-04-11T08:51:51.604Z,5.31
2019-04-11T08:54:39.674Z,5.94
2019-04-11T08:57:10.090Z,5.79
2019-04-11T09:00:13.792Z,6.08
2019-04-11T09:02:47.711Z,5.95
2019-04-11T09:05:40.911Z,6.05
2019-04-11T09:08:28.078Z,5.97
2019-04-11T09:11:22.523Z,5.87
2019-04-11T09:14:20.144Z,5.90
2019-04-11T09:16:58.825Z,5.66
2019-04-11T09:19:36.045Z,5.93
2019-04-11T09:22:27.327Z,6.07
2019-04-11T09:25:18.977Z,6.38
2019-04-11T09:28:07.446Z,6.29
2019-04-11T09:30:54.896Z,5.93
2019-04-11T09:33:53.180Z,5.88
2019-04-11T09:36:40.816Z,6.16
2019-04-11T09:39:32.471Z,6.13
2019-04-11T09:42:22.390Z,6.04
2019-04-11T09:44:59.357Z,6.11
2019-04-11T09:47:47.994Z,6.09
2019-04-11T09:50:32.209Z,6.16
2019-04-11T09:53:01.914Z,6.38
2019-04-11T09:55:41.664Z,6.47
2019-04-11T09:58:23.509Z,6.49
2019-04-11T10:01:10.948Z,6.42
2019-04-11T10:03:40.919Z,6.46
2019-04-11T10:06:38.885Z,6.41
2019-04-11T10:09:11.355Z,6.44
2019-04-11T10:12:15.890Z,6.36
2019-04-11T10:14:48.154Z,6.51
2019-04-11T10:17:42.738Z,6.50
2019-04-11T10:20:16.102Z,6.32
2019-04-11T10:23:10.519Z,6.35
2019-04-11T10:25:47.529Z,6.33
2019-04-11T10:28:36.032Z,6.43
2019-04-11T10:31:14.573Z,6.42
2019-04-11T10:34:14.938Z,6.63
2019-04-11T10:36:57.221Z,6.46
2019-04-11T10:39:54.695Z,6.60
2019-04-11T10:42:26.680Z,6.65
2019-04-11T10:45:31.144Z,6.69
2019-04-11T10:48:07.715Z,6.52
2019-04-11T10:50:54.699Z,6.62
2019-04-11T10:53:26.994Z,6.39
2019-04-11T10:56:14.153Z,6.42
2019-04-11T10:58:49.349Z,6.57
2019-04-11T11:01:37.959Z,6.45
2019-04-11T11:04:32.577Z,6.42
2019-04-11T11:07:06.472Z,6.53
2019-04-11T11:09:55.121Z,6.67
2019-04-11T11:12:47.558Z,6.68
2019-04-11T11:15:39.890Z,6.58
2019-04-11T11:18:48.110Z,6.58
2019-04-11T11:21:06.076Z,6.80
2019-04-11T11:23:54.454Z,6.95
2019-04-11T11:26:29.476Z,6.93
2019-04-11T11:29:18.541Z,7.03
2019-04-11T11:32:00.826Z,7.19
2019-04-11T11:35:01.676Z,7.08
2019-04-11T11:37:45.090Z,7.19
2019-04-11T11:40:32.431Z,7.28
2019-04-11T11:43:30.991Z,7.28
2019-04-11T11:46:31.014Z,7.28
2019-04-11T11:49:03.053Z,7.43
2019-04-11T11:52:11.086Z,7.43
2019-04-11T11:54:45.979Z,7.41
2019-04-11T11:57:20.790Z,7.47
2019-04-11T11:59:54.650Z,7.45
2019-04-11T12:02:38.974Z,7.50
2019-04-11T12:05:18.035Z,7.35
2019-04-11T12:07:54.395Z,7.35
2019-04-11T12:10:32.348Z,7.52
2019-04-11T12:13:26.225Z,7.56
2019-04-11T12:16:27.974Z,7.70
2019-04-11T12:19:16.015Z,7.75
2019-04-11T12:21:48.580Z,7.75
2019-04-11T12:24:52.979Z,7.90
2019-04-11T12:27:44.337Z,7.79
2019-04-11T12:30:33.881Z,7.33
2019-04-11T12:33:27.684Z,7.33
2019-04-11T12:36:16.820Z,7.33
2019-04-11T12:39:04.111Z,7.44
2019-04-11T12:41:52.596Z,7.60
2019-04-11T12:44:50.139Z,7.50
2019-04-11T12:47:41.817Z,7.89
2019-04-11T12:50:31.067Z,8.08
2019-04-11T12:53:09.265Z,8.08
2019-04-11T12:55:53.727Z,7.77
2019-04-11T12:58:35.741Z,7.71
2019-04-11T13:01:18.542Z,7.71
2019-04-11T13:04:05.667Z,7.92
2019-04-11T13:06:47.947Z,7.64
2019-04-11T13:09:34.756Z,7.64
2019-04-11T13:12:04.581Z,7.52
2019-04-11T13:14:44.315Z,7.71
2019-04-11T13:17:17.747Z,7.97
2019-04-11T13:20:05.189Z,8.13
2019-04-11T13:22:35.041Z,7.82
2019-04-11T13:25:29.839Z,7.82
2019-04-11T13:27:59.642Z,7.95
2019-04-11T13:30:48.094Z,7.95
2019-04-11T13:33:23.710Z,8.24
2019-04-11T13:36:15.268Z,7.90
2019-04-11T13:38:51.556Z,7.69
2019-04-11T13:41:49.164Z,7.59
2019-04-11T13:44:25.404Z,7.81
2019-04-11T13:47:22.939Z,7.71
2019-04-11T13:49:55.466Z,7.71
2019-04-11T13:52:43.920Z,7.54
2019-04-11T13:55:28.599Z,7.46
2019-04-11T13:58:16.975Z,7.34
2019-04-11T14:00:50.961Z,7.41
2019-04-11T14:03:48.428Z,7.41
2019-04-11T14:06:21.312Z,7.56
2019-04-11T14:09:08.078Z,7.57
2019-04-11T14:11:41.323Z,7.77
2019-04-11T14:14:17.080Z,8.06
2019-04-11T14:16:54.990Z,8.10
2019-04-11T14:19:34.730Z,8.10
2019-04-11T14:22:08.015Z,8.05
2019-04-11T14:25:00.686Z,7.66
2019-04-11T14:27:30.967Z,7.61
2019-04-11T14:30:32.120Z,7.61
2019-04-11T14:33:01.900Z,7.55
2019-04-11T14:35:48.809Z,7.34
2019-04-11T14:38:19.838Z,7.36
2019-04-11T14:41:02.234Z,7.32
2019-04-11T14:43:37.396Z,7.27
2019-04-11T14:46:26.133Z,7.39
2019-04-11T14:49:01.993Z,6.45
2019-04-11T14:51:50.471Z,7.49
2019-04-11T14:54:23.202Z,7.55
2019-04-11T14:57:14.987Z,7.50
2019-04-11T14:59:53.784Z,7.34
2019-04-11T15:02:39.019Z,7.34
2019-04-11T15:05:30.133Z,7.36
2019-04-11T15:08:00.032Z,7.36
2019-04-11T15:10:48.284Z,7.64
2019-04-11T15:13:21.260Z,7.64
2019-04-11T15:16:21.515Z,7.62
2019-04-11T15:18:56.051Z,7.66
2019-04-11T15:21:53.582Z,7.66
2019-04-11T15:24:23.459Z,7.67
2019-04-11T15:27:18.223Z,7.74
2019-04-11T15:29:47.871Z,7.71
2019-04-11T15:32:39.491Z,7.59
2019-04-11T15:35:14.089Z,7.44
2019-04-11T15:38:01.307Z,7.52
2019-04-11T15:40:37.514Z,7.52
2019-04-11T15:43:41.910Z,7.46
2019-04-11T15:46:14.724Z,7.32
2019-04-11T15:49:06.839Z,7.16
2019-04-11T15:51:41.174Z,7.31
2019-04-11T15:54:34.840Z,7.31
2019-04-11T15:57:26.945Z,7.30
2019-04-11T16:00:30.528Z,7.10
2019-04-11T16:03:07.398Z,7.15
2019-04-11T16:05:54.679Z,7.09
2019-04-11T16:08:44.226Z,7.06
2019-04-11T16:11:31.473Z,7.06
2019-04-11T16:14:09.981Z,7.16
2019-04-11T16:17:00.554Z,7.05
2019-04-11T16:20:08.605Z,6.98
2019-04-11T16:23:15.123Z,6.94
2019-04-11T16:25:48.006Z,6.86
2019-04-11T16:28:35.782Z,6.76
2019-04-11T16:31:09.407Z,6.84
2019-04-11T16:34:06.143Z,6.72
2019-04-11T16:36:54.668Z,6.71
2019-04-11T16:39:49.989Z,6.76
2019-04-11T16:42:26.968Z,6.71
2019-04-11T16:45:24.733Z,6.64
2019-04-11T16:48:10.211Z,6.68
2019-04-11T16:50:39.948Z,6.57
2019-04-11T16:53:11.507Z,6.47
2019-04-11T16:55:43.242Z,6.48
2019-04-11T16:58:15.119Z,6.43
2019-04-11T17:00:44.245Z,6.40
2019-04-11T17:03:13.783Z,6.34
2019-04-11T17:05:50.033Z,6.31
2019-04-11T17:08:29.277Z,6.28
2019-04-11T17:11:12.840Z,4.37
2019-04-11T17:13:43.015Z,6.20
2019-04-11T17:16:14.512Z,6.22
2019-04-11T17:18:44.118Z,6.22
2019-04-11T17:21:13.646Z,6.11
2019-04-11T17:23:46.867Z,6.12
2019-04-11T17:26:14.765Z,6.21
2019-04-11T17:28:44.335Z,6.01
2019-04-11T17:31:14.021Z,6.08
2019-04-11T17:33:43.622Z,6.09
2019-04-11T17:36:13.648Z,6.07
2019-04-11T17:38:43.230Z,6.08
2019-04-11T17:41:12.814Z,6.08
2019-04-11T17:43:46.768Z,5.90
2019-04-11T17:46:13.853Z,5.91
2019-04-11T17:48:43.567Z,5.91
2019-04-11T17:51:13.247Z,5.88
2019-04-11T17:53:43.093Z,5.84
2019-04-11T17:56:12.986Z,5.81
2019-04-11T17:58:42.679Z,5.77
2019-04-11T18:01:12.473Z,5.78
2019-04-11T18:03:42.722Z,5.74
2019-04-11T18:06:16.910Z,5.76
2019-04-11T18:08:46.527Z,5.72
2019-04-11T18:11:16.346Z,5.75
2019-04-11T18:13:46.418Z,5.78
2019-04-11T18:16:16.212Z,5.75
2019-04-11T18:18:45.838Z,5.76
2019-04-11T18:21:15.832Z,5.70
2019-04-11T18:23:49.939Z,5.67
2019-04-11T18:26:21.454Z,5.65
2019-04-11T18:28:52.089Z,5.60
2019-04-11T18:31:24.750Z,5.57
2019-04-11T18:33:53.743Z,5.54
2019-04-11T18:36:23.458Z,5.54
2019-04-11T18:38:53.352Z,5.45
2019-04-11T18:41:23.210Z,5.41
2019-04-11T18:43:53.227Z,5.43
2019-04-11T18:46:23.060Z,5.40
2019-04-11T18:48:54.507Z,5.32
2019-04-11T18:51:24.269Z,5.29
2019-04-11T18:53:53.965Z,5.28
2019-04-11T18:56:23.687Z,5.23
2019-04-11T18:58:53.478Z,5.19
2019-04-11T19:01:23.330Z,5.19
2019-04-11T19:03:52.926Z,5.20
2019-04-11T19:06:27.782Z,5.16
2019-04-11T19:08:54.145Z,5.11
2019-04-11T19:11:23.846Z,5.06
2019-04-11T19:13:53.370Z,5.08
2019-04-11T19:16:23.173Z,5.04
2019-04-11T19:18:52.981Z,5.01
2019-04-11T19:21:24.029Z,4.97
2019-04-11T19:23:53.592Z,4.96
2019-04-11T19:26:23.400Z,4.93
2019-04-11T19:28:55.129Z,4.92
2019-04-11T19:31:27.157Z,4.91
2019-04-11T19:33:55.767Z,4.84
2019-04-11T19:36:25.664Z,4.79
2019-04-11T19:38:55.240Z,4.77
2019-04-11T19:41:24.824Z,4.78
2019-04-11T19:43:55.017Z,4.67
2019-04-11T19:46:24.557Z,4.63
2019-04-11T19:48:59.147Z,4.60
2019-04-11T19:51:29.084Z,4.62
2019-04-11T19:54:02.971Z,4.59
2019-04-11T19:56:48.263Z,4.53
2019-04-11T19:59:17.820Z,4.49
2019-04-11T20:01:47.555Z,4.50
2019-04-11T20:04:17.418Z,4.48
2019-04-11T20:06:47.187Z,4.45
2019-04-11T20:09:16.831Z,4.42
2019-04-11T20:11:46.541Z,4.39
2019-04-11T20:14:16.427Z,4.37
2019-04-11T20:16:48.997Z,4.35
2019-04-11T20:19:17.354Z,4.30
2019-04-11T20:21:47.644Z,4.32
2019-04-11T20:24:18.396Z,4.33
2019-04-11T20:26:50.311Z,4.27
2019-04-11T20:29:21.404Z,4.21
2019-04-11T20:31:50.993Z,4.17
2019-04-11T20:34:27.328Z,4.14
2019-04-11T20:36:52.840Z,4.07
2019-04-11T20:39:22.395Z,4.08
2019-04-11T20:41:53.507Z,4.05
2019-04-11T20:44:27.209Z,4.04
2019-04-11T20:47:00.202Z,4.05
2019-04-11T20:49:28.676Z,4.01
2019-04-11T20:52:00.533Z,3.97
2019-04-11T20:54:30.319Z,3.97
2019-04-11T20:56:59.980Z,3.90
2019-04-11T20:59:35.281Z,3.91
2019-04-11T21:02:05.166Z,3.86
2019-04-11T21:04:34.797Z,3.85
2019-04-11T21:07:06.930Z,3.82
2019-04-11T21:09:36.445Z,3.76
2019-04-11T21:12:07.600Z,3.78
2019-04-11T21:14:37.714Z,3.72
2019-04-11T21:17:07.270Z,3.72
2019-04-11T21:19:36.766Z,3.72
2019-04-11T21:22:06.282Z,3.73
2019-04-11T21:24:35.820Z,3.72
2019-04-11T21:27:05.475Z,3.68
2019-04-11T21:29:35.260Z,3.67
2019-04-11T21:32:04.739Z,3.67
2019-04-11T21:34:34.491Z,3.62
2019-04-11T21:37:04.699Z,3.55
2019-04-11T21:39:34.229Z,3.55
2019-04-11T21:42:06.093Z,3.52
2019-04-11T21:44:36.749Z,3.51
2019-04-11T21:47:07.319Z,3.52
2019-04-11T21:49:37.775Z,2.39
2019-04-11T21:52:07.464Z,3.39
2019-04-11T21:54:36.919Z,3.42
2019-04-11T21:57:06.588Z,3.41
2019-04-11T21:59:36.264Z,3.39
2019-04-11T22:02:07.882Z,3.37
2019-04-11T22:04:37.397Z,3.41
2019-04-11T22:07:06.920Z,3.45
2019-04-11T22:09:36.612Z,3.47
2019-04-11T22:12:08.135Z,3.39
2019-04-11T22:14:41.388Z,3.41
2019-04-11T22:17:08.883Z,3.32
2019-04-11T22:19:38.535Z,3.22
2019-04-11T22:22:08.059Z,3.18
2019-04-11T22:24:37.610Z,3.13
2019-04-11T22:27:07.200Z,3.09
2019-04-11T22:29:36.691Z,3.02
2019-04-11T22:32:06.434Z,3.02
2019-04-11T22:34:39.640Z,3.07
2019-04-11T22:37:09.343Z,3.14
2019-04-11T22:39:38.899Z,3.10
2019-04-11T22:42:08.817Z,3.04
2019-04-11T22:44:38.688Z,2.99
2019-04-11T22:47:08.691Z,2.96
2019-04-11T22:49:39.417Z,3.01
2019-04-11T22:52:11.302Z,2.93
2019-04-11T22:54:41.802Z,2.95
2019-04-11T22:57:12.108Z,2.95
2019-04-11T22:59:44.872Z,2.88
2019-04-11T23:02:34.001Z,2.80
2019-04-11T23:05:03.511Z,2.72
2019-04-11T23:07:32.938Z,2.78
2019-04-11T23:10:02.650Z,2.75
2019-04-11T23:12:32.226Z,2.72
2019-04-11T23:15:01.736Z,2.74
2019-04-11T23:17:31.535Z,2.72
2019-04-11T23:20:01.255Z,2.67
2019-04-11T23:22:31.048Z,2.63
2019-04-11T23:25:00.865Z,2.62
2019-04-11T23:27:30.586Z,2.60
2019-04-11T23:30:00.205Z,2.58
2019-04-11T23:32:30.324Z,2.51
2019-04-11T23:35:00.079Z,2.49
2019-04-11T23:37:31.522Z,2.46
2019-04-11T23:40:01.189Z,2.35
2019-04-11T23:42:30.881Z,2.33
2019-04-11T23:45:00.917Z,2.23
2019-04-11T23:47:30.547Z,2.11
2019-04-11T23:50:00.324Z,2.06
2019-04-11T23:52:30.072Z,2.05
2019-04-11T23:55:00.560Z,2.00
2019-04-11T23:57:31.282Z,1.92
